Latest Coastal Weather Observations for Samuel Hill

IDQ60701

Issued at 3:42 am EST Tuesday 23 December 2014 (issued every 10 minutes, with the page automatically refreshed every 10 minutes)

About coastal observations | Map of coastal stations | Coastal observations for QLD | Marine services | Other Formats
Station Details ID: 033308 Name: SAMUEL HILL AERO Lat: -22.74 Lon: 150.66 Height: 31.0 m
Data from the previous 72 hours. | See also: Recent months at Samuel Hill
Date/Time
EST
Temp

°C
Wind Pressure Rain
since 9am
mm
Weather Cloud Vis
km
Sea
Height
m
Swell
Dir
 
Speed
knots
Gust
knots
hPa Trend Height
m
Period
s
Dir
23/03:00am 22.4 SE 5 7 1012.8 - 0.0 - - 10 - - - -
23/02:30am 22.6 SE 5 7 1012.9 - 0.0 - Partly cloudy 10 - - - -
23/02:00am 22.6 ESE 5 7 1012.9 - 0.0 - - 10 - - - -
23/01:30am 23.0 SE 6 8 1013.1 - 0.0 - Partly cloudy 10 - - - -
23/01:00am 23.5 ESE 6 10 1013.5 - 0.0 - Partly cloudy 10 - - - -
23/12:30am 23.9 ESE 8 13 1013.7 - 0.0 - Partly cloudy 10 - - - -
23/12:00am 24.1 ESE 8 17 1013.9 - 0.0 - - 28 - - - -
 
Date/Time
EST
Temp

°C
Wind Pressure Rain
since 9am
mm
Weather Cloud Vis
km
Sea
Height
m
Swell
Dir
 
Speed
knots
Gust
knots
hPa Trend Height
m
Period
s
Dir
22/11:30pm 24.2 ESE 9 15 1014.2 - 0.0 - Partly cloudy 10 - - - -
22/11:00pm 24.2 ESE 5 9 1014.4 - 0.0 - Partly cloudy 10 - - - -
22/10:30pm 24.3 ESE 7 11 1014.6 - 0.0 - Partly cloudy 10 - - - -
22/10:00pm 24.2 ESE 6 10 1014.6 - 0.0 - Partly cloudy 10 - - - -
22/09:30pm 24.0 SE 6 10 1014.5 - 0.0 - Partly cloudy 10 - - - -
22/09:00pm 24.0 ESE 5 11 1014.3 - 0.0 - Partly cloudy 10 - - - -
22/08:30pm 23.9 SE 4 6 1014.2 - 0.0 - Partly cloudy 10 - - - -
22/08:00pm 24.1 ESE 5 9 1014.0 - 0.0 - Partly cloudy 10 - - - -
22/07:30pm 24.4 ESE 5 9 1013.9 - 0.0 - Partly cloudy 10 - - - -
22/07:00pm 24.4 ESE 5 8 1013.6 - 0.0 - Partly cloudy 10 - - - -
22/06:30pm 25.0 ESE 7 10 1013.3 - 0.0 - Partly cloudy 10 - - - -
22/06:00pm 25.7 ESE 9 13 1013.1 - 0.0 - Mostly clear 10 - - - -
22/05:30pm 26.1 E 8 14 1012.9 - 0.0 - Partly cloudy 10 - - - -
22/05:00pm 26.5 ESE 9 15 1012.8 - 0.0 - - 10 - - - -
22/04:30pm 26.9 ESE 9 15 1012.7 - 0.0 - Partly cloudy 10 - - - -
22/04:00pm 27.7 ESE 11 17 1012.4 - 0.0 - Partly cloudy 10 - - - -
22/03:30pm 28.0 ESE 9 16 1012.5 - 0.0 - Partly cloudy 10 - - - -
22/03:00pm 27.8 ESE 11 17 1013.0 - 0.0 - Mostly clear 10 - - - -
22/02:30pm 28.6 SE 10 18 1013.3 - 0.0 - Partly cloudy 10 - - - -
22/02:00pm 27.6 ESE 11 16 1013.8 - 0.0 - Partly cloudy 10 - - - -
22/01:30pm 28.1 SE 11 17 1014.1 - 0.0 - Partly cloudy 10 - - - -
22/01:00pm 27.8 ESE 12 20 1014.3 - 0.0 - Partly cloudy 10 - - - -
22/12:30pm 28.4 ESE 13 23 1014.5 - 0.0 - Partly cloudy 10 - - - -
22/12:00pm 28.3 SE 12 23 1014.9 - 0.0 - - 10 - - - -
22/11:30am 28.2 SE 12 17 1014.9 - 0.0 - Partly cloudy 10 - - - -
22/11:00am 28.2 SE 11 17 1015.3 - 0.0 - Partly cloudy 10 - - - -
22/10:30am 27.9 ESE 11 17 1015.5 - 0.0 - Partly cloudy 10 - - - -
22/10:00am 27.2 ESE 11 17 1015.4 - 0.0 - Partly cloudy 10 - - - -
22/09:30am 27.3 ESE 11 17 1015.4 - 0.0 - Partly cloudy 10 - - - -
22/09:00am 26.1 ESE 10 16 1015.6 - 0.0 - Partly cloudy 10 - - - -
22/08:30am 26.7 E 8 13 1015.4 - 0.0 - Partly cloudy 10 - - - -
22/08:00am 26.7 E 11 17 1015.2 - 0.0 - Partly cloudy 10 - - - -
22/07:30am 25.8 ESE 5 8 1015.0 - 0.0 - Partly cloudy 10 - - - -
22/07:00am 24.8 SE 3 10 1014.6 - 0.0 - Partly cloudy 10 - - - -
22/06:30am 22.0 SE 3 4 1014.4 - 0.0 - - 10 - - - -
22/06:00am 21.0 CALM 0 0 1013.9 - 0.0 - - 10 - - - -
22/05:30am 19.7 CALM 0 0 1013.7 - 0.0 - - 10 - - - -
22/05:00am 19.6 CALM 0 0 1013.3 - 0.0 - - 10 - - - -
22/04:30am 19.8 CALM 0 0 1013.0 - 0.0 - Partly cloudy 10 - - - -
22/04:00am 19.6 CALM 0 0 1012.8 - 0.0 - - 10 - - - -
22/03:30am 20.3 CALM 0 3 1013.0 - 0.0 - Partly cloudy 10 - - - -
22/03:00am 20.2 CALM 0 3 1013.0 - 0.0 - - 10 - - - -
22/02:30am 21.1 SE 2 4 1013.4 - 0.0 - - 10 - - - -
22/02:00am 21.4 SSE 3 5 1013.6 - 0.0 - Partly cloudy 10 - - - -
22/01:30am 22.1 SE 1 4 1014.0 - 0.0 - - 10 - - - -
22/01:00am 22.8 ESE 4 4 1014.3 - 0.0 - - 10 - - - -
22/12:30am 23.2 E 3 5 1014.6 - 0.0 - Partly cloudy 10 - - - -
22/12:00am 23.8 ESE 5 7 1014.9 - 0.0 - - 10 - - - -
 
Date/Time
EST
Temp

°C
Wind Pressure Rain
since 9am
mm
Weather Cloud Vis
km
Sea
Height
m
Swell
Dir
 
Speed
knots
Gust
knots
hPa Trend Height
m
Period
s
Dir
21/11:30pm 23.9 E 5 9 1015.0 - 0.0 - - 10 - - - -
21/11:00pm 24.0 ESE 6 10 1015.3 - 0.0 - Partly cloudy 10 - - - -
21/10:30pm 23.9 E 5 6 1015.3 - 0.0 - Partly cloudy 10 - - - -
21/10:00pm 23.7 E 5 7 1015.2 - 0.0 - - 10 - - - -
21/09:30pm 23.9 E 5 6 1015.0 - 0.0 - - 10 - - - -
21/09:00pm 24.2 E 5 10 1014.9 - 0.0 - - 10 - - - -
21/08:30pm 23.6 ESE 4 6 1014.8 - 0.0 - - 10 - - - -
21/08:00pm 23.8 ESE 3 6 1014.9 - 0.0 - - 10 - - - -
21/07:30pm 24.1 ESE 4 5 1014.6 - 0.0 - - 10 - - - -
21/07:00pm 24.7 ESE 5 9 1014.3 - 0.0 - - 10 - - - -
21/06:30pm 25.4 E 6 10 1013.9 - 0.0 - - 10 - - - -
21/06:00pm 26.2 E 7 10 1013.5 - 0.0 - - 10 - - - -
21/05:30pm 26.9 ENE 9 13 1013.2 - 0.0 - - 10 - - - -
21/05:00pm 27.3 ENE 9 14 1013.0 - 0.0 - - 10 - - - -
21/04:30pm 28.0 ENE 9 13 1013.1 - 0.0 - Partly cloudy 10 - - - -
21/04:00pm 28.5 SE 8 14 1013.2 - 0.0 - Partly cloudy 10 - - - -
21/03:30pm 28.0 ESE 9 13 1013.3 - 0.0 - Partly cloudy 10 - - - -
21/03:00pm 28.0 SE 9 13 1013.4 - 0.0 - Mostly clear 10 - - - -
21/02:30pm 28.6 ESE 9 13 1013.7 - 0.0 - - 10 - - - -
21/02:00pm 28.0 ESE 9 13 1014.1 - 0.0 - Partly cloudy 10 - - - -
21/01:30pm 28.7 E 9 13 1014.2 - 0.0 - Partly cloudy 10 - - - -
21/01:00pm 29.0 ESE 10 15 1014.5 - 0.0 - Partly cloudy 10 - - - -
21/12:30pm 28.8 ESE 10 15 1014.9 - 0.0 - Partly cloudy 10 - - - -
21/12:00pm 28.7 ESE 11 16 1014.9 - 0.0 - Mostly clear 10 - - - -
21/11:30am 28.9 E 9 13 1015.2 - 0.0 - Partly cloudy 10 - - - -
21/11:00am 28.8 E 9 14 1015.3 - 0.0 - - 10 - - - -
21/10:30am 28.5 ESE 10 14 1015.5 - 0.0 - Partly cloudy 10 - - - -
21/10:00am 28.1 ESE 8 12 1015.5 - 0.0 - Partly cloudy 10 - - - -
21/09:30am 28.7 ESE 9 13 1015.3 - 0.0 - Partly cloudy 10 - - - -
21/09:00am 28.2 E 9 13 1015.3 - 0.0 - Cloudy 10 - - - -
21/08:30am 27.1 E 8 14 1015.2 - 0.0 - Partly cloudy 10 - - - -
21/08:00am 26.7 E 9 12 1015.1 - 0.0 - Partly cloudy 10 - - - -
21/07:30am 27.3 E 9 13 1014.5 - 0.0 - Partly cloudy 10 - - - -
21/07:00am 26.1 E 6 9 1014.4 - 0.0 - Partly cloudy 10 - - - -
21/06:30am 23.8 SE 1 4 1014.2 - 0.0 - Partly cloudy 10 - - - -
21/06:00am 22.0 CALM 0 0 1013.9 - 0.0 - Mostly clear 10 - - - -
21/05:30am 20.8 CALM 0 0 1013.6 - 0.0 - Partly cloudy 10 - - - -
21/05:00am 20.9 CALM 0 0 1013.2 - 0.0 - Partly cloudy 10 - - - -
21/04:30am 20.6 CALM 0 0 1012.8 - 0.0 - Partly cloudy 10 - - - -
21/04:00am 20.7 CALM 0 0 1012.7 - 0.0 - Partly cloudy 10 - - - -
21/03:30am 20.9 CALM 0 0 1012.6 - 0.0 - Partly cloudy 10 - - - -
21/03:09am 20.9 CALM 0 0 1012.5 - 0.0 - Partly cloudy 10 - - - -
21/03:00am 21.2 CALM 0 0 1012.5 - 0.0 - Partly cloudy 10 - - - -
21/02:46am 21.3 CALM 0 0 1012.5 - 0.0 - Partly cloudy 7 - - - -
21/02:30am 21.1 CALM 0 0 1012.6 - 0.0 - Partly cloudy 10 - - - -
21/02:00am 20.9 CALM 0 0 1012.7 - 0.0 - - 10 - - - -
21/01:30am 21.2 S 1 4 1012.9 - 0.0 - Partly cloudy 10 - - - -
21/01:00am 21.5 CALM 0 0 1013.1 - 0.0 - - 10 - - - -
21/12:30am 21.7 CALM 0 0 1013.3 - 0.0 - - 10 - - - -
21/12:00am 22.0 S 2 4 1013.7 - 0.0 - Mostly clear 10 - - - -
 
Date/Time
EST
Temp

°C
Wind Pressure Rain
since 9am
mm
Weather Cloud Vis
km
Sea
Height
m
Swell
Dir
 
Speed
knots
Gust
knots
hPa Trend Height
m
Period
s
Dir
20/11:30pm 22.8 CALM 0 3 1013.9 - 0.0 - Partly cloudy 10 - - - -
20/11:00pm 23.4 ESE 3 5 1014.0 - 0.0 - Partly cloudy 10 - - - -
20/10:30pm 23.8 E 4 5 1014.3 - 0.0 - Partly cloudy 10 - - - -
20/10:00pm 23.6 E 4 6 1014.4 - 0.0 - Cloudy 10 - - - -
20/09:30pm 22.3 E 1 4 1014.1 - 0.0 - Partly cloudy 10 - - - -
20/09:00pm 22.4 CALM 0 0 1013.9 - 0.0 - Mostly clear 10 - - - -
20/08:30pm 22.8 ESE 1 3 1013.5 - 0.0 - - 10 - - - -
20/08:00pm 23.3 SE 1 4 1013.1 - 0.0 - - 10 - - - -
20/07:30pm 23.8 ESE 2 4 1012.9 - 0.0 - - 10 - - - -
20/07:00pm 24.5 ESE 2 5 1012.6 - 0.0 - - 10 - - - -
20/06:30pm 25.4 E 6 9 1012.2 - 0.0 - - 10 - - - -
20/06:00pm 26.6 E 6 10 1011.8 - 0.0 - - 10 - - - -
20/05:30pm 27.3 E 7 10 1011.5 - 0.0 - - 10 - - - -
20/05:00pm 28.3 E 6 10 1011.3 - 0.0 - - 10 - - - -
20/04:30pm 28.6 ESE 8 11 1011.0 - 0.0 - - 10 - - - -
20/04:00pm 28.8 ESE 9 12 1011.0 - 0.0 - - 10 - - - -
20/03:30pm 29.0 ESE 9 14 1011.0 - 0.0 - - 10 - - - -
20/03:00pm 29.1 SE 11 16 1011.4 - 0.0 - Mostly clear 10 - - - -
20/02:30pm 29.7 SE 11 16 1011.6 - 0.0 - Partly cloudy 10 - - - -
20/02:00pm 30.0 SE 9 13 1011.8 - 0.0 - Partly cloudy 10 - - - -
20/01:30pm 29.0 ESE 10 15 1011.9 - 0.0 - - 10 - - - -
20/01:00pm 29.5 SE 10 16 1012.2 - 0.0 - - 10 - - - -
20/12:30pm 29.8 ESE 10 15 1012.6 - 0.0 - - 10 - - - -
20/12:00pm 29.7 ESE 10 15 1012.8 - 0.0 - - 10 - - - -
20/11:30am 30.1 SE 8 14 1013.1 - 0.0 - - 10 - - - -
20/11:00am 30.0 SE 8 13 1013.3 - 0.0 - - 10 - - - -
20/10:30am 29.5 ESE 8 13 1013.6 - 0.0 - - 10 - - - -
20/10:00am 30.4 ESE 8 12 1013.4 - 0.0 - - 10 - - - -
20/09:30am 29.4 SE 7 10 1013.3 - 0.0 - - 10 - - - -
20/09:00am 28.5 SE 5 9 1013.0 - 15.8 Recent precip. - 10 - - - -
20/08:30am 27.8 SE 5 9 1013.0 - 15.8 - - 10 - - - -
20/08:00am 26.5 CALM 0 3 1012.9 - 15.6 - - 10 - - - -
20/07:30am 25.1 SSW 1 4 1012.9 - 15.6 - - 10 - - - -
20/07:00am 23.0 CALM 0 0 1012.5 - 15.6 - - 10 - - - -
20/06:48am 22.1 CALM 0 0 1012.4 - 15.6 - Partly cloudy 10 - - - -
20/06:43am 21.8 CALM 0 0 1012.3 - 15.6 - Partly cloudy 10 - - - -
20/06:30am 21.2 CALM 0 0 1012.2 - 15.6 - Partly cloudy 3 - - - -
20/06:00am 19.6 CALM 0 0 1011.9 - 15.6 - Mostly cloudy 0.5 - - - -
20/05:30am 19.1 CALM 0 0 1011.5 - 15.6 - Cloudy 0.1 - - - -
20/05:00am 19.0 CALM 0 0 1011.1 - 15.6 - Cloudy 0.3 - - - -
20/04:30am 19.1 CALM 0 0 1010.9 - 15.6 - Cloudy 0.3 - - - -
20/04:00am 19.5 CALM 0 0 1010.8 - 15.6 - Cloudy 0.5 - - - -
20/03:47am 19.5 CALM 0 0 1010.7 - 15.6 - Cloudy 0.1 - - - -

Other Formats:

Comma delimited format used in spreadsheet applications
http://www.bom.gov.au/fwo/IDQ60701/IDQ60701.94370.axf

JavaScript Object Notation format (JSON) in row-major order
http://www.bom.gov.au/fwo/IDQ60701/IDQ60701.94370.json